sensor_id;sensor_type;location;lat;lon;timestamp;temperature;humidity
67820;DHT22;54618;52.018;5.576;2024-03-25T00:01:51;4.40;90.00
67820;DHT22;54618;52.018;5.576;2024-03-25T00:04:16;4.30;89.90
67820;DHT22;54618;52.018;5.576;2024-03-25T00:06:42;4.30;89.80
67820;DHT22;54618;52.018;5.576;2024-03-25T00:09:08;4.30;90.00
67820;DHT22;54618;52.018;5.576;2024-03-25T00:11:42;4.20;90.00
67820;DHT22;54618;52.018;5.576;2024-03-25T00:14:08;4.20;89.90
67820;DHT22;54618;52.018;5.576;2024-03-25T00:16:34;4.20;89.70
67820;DHT22;54618;52.018;5.576;2024-03-25T00:19:00;4.20;89.80
67820;DHT22;54618;52.018;5.576;2024-03-25T00:21:26;4.20;89.80
67820;DHT22;54618;52.018;5.576;2024-03-25T00:23:52;4.20;90.10
67820;DHT22;54618;52.018;5.576;2024-03-25T00:26:18;4.20;89.60
67820;DHT22;54618;52.018;5.576;2024-03-25T00:28:43;4.10;89.50
67820;DHT22;54618;52.018;5.576;2024-03-25T00:31:09;4.10;89.50
67820;DHT22;54618;52.018;5.576;2024-03-25T00:33:35;4.10;89.60
67820;DHT22;54618;52.018;5.576;2024-03-25T00:36:01;4.10;89.70
67820;DHT22;54618;52.018;5.576;2024-03-25T00:38:26;4.10;89.70
67820;DHT22;54618;52.018;5.576;2024-03-25T00:40:52;4.10;89.60
67820;DHT22;54618;52.018;5.576;2024-03-25T00:43:18;4.10;89.50
67820;DHT22;54618;52.018;5.576;2024-03-25T00:45:45;4.10;89.40
67820;DHT22;54618;52.018;5.576;2024-03-25T00:48:10;4.10;89.40
67820;DHT22;54618;52.018;5.576;2024-03-25T00:50:37;4.10;89.40
67820;DHT22;54618;52.018;5.576;2024-03-25T00:53:02;4.20;89.30
67820;DHT22;54618;52.018;5.576;2024-03-25T00:55:28;4.10;89.40
67820;DHT22;54618;52.018;5.576;2024-03-25T00:57:54;4.10;89.40
67820;DHT22;54618;52.018;5.576;2024-03-25T01:00:20;4.10;89.40
67820;DHT22;54618;52.018;5.576;2024-03-25T01:02:46;4.10;89.40
67820;DHT22;54618;52.018;5.576;2024-03-25T01:05:12;4.10;89.40
67820;DHT22;54618;52.018;5.576;2024-03-25T01:07:37;4.10;89.30
67820;DHT22;54618;52.018;5.576;2024-03-25T01:10:03;4.00;89.30
67820;DHT22;54618;52.018;5.576;2024-03-25T01:12:29;4.00;89.40
67820;DHT22;54618;52.018;5.576;2024-03-25T01:14:55;4.00;89.40
67820;DHT22;54618;52.018;5.576;2024-03-25T01:17:20;4.00;89.40
67820;DHT22;54618;52.018;5.576;2024-03-25T01:19:46;3.90;89.50
67820;DHT22;54618;52.018;5.576;2024-03-25T01:22:12;3.90;89.50
67820;DHT22;54618;52.018;5.576;2024-03-25T01:24:37;3.90;89.50
67820;DHT22;54618;52.018;5.576;2024-03-25T01:27:03;3.90;89.60
67820;DHT22;54618;52.018;5.576;2024-03-25T01:29:29;3.90;90.00
67820;DHT22;54618;52.018;5.576;2024-03-25T01:31:54;3.90;89.80
67820;DHT22;54618;52.018;5.576;2024-03-25T01:34:20;3.80;89.60
67820;DHT22;54618;52.018;5.576;2024-03-25T01:36:45;3.80;89.80
67820;DHT22;54618;52.018;5.576;2024-03-25T01:39:11;3.80;89.40
67820;DHT22;54618;52.018;5.576;2024-03-25T01:41:36;3.90;89.50
67820;DHT22;54618;52.018;5.576;2024-03-25T01:44:02;3.80;89.40
67820;DHT22;54618;52.018;5.576;2024-03-25T01:46:28;3.90;89.60
67820;DHT22;54618;52.018;5.576;2024-03-25T01:48:54;3.80;89.50
67820;DHT22;54618;52.018;5.576;2024-03-25T01:51:23;3.80;89.50
67820;DHT22;54618;52.018;5.576;2024-03-25T01:53:49;3.80;89.60
67820;DHT22;54618;52.018;5.576;2024-03-25T01:56:18;3.80;89.70
67820;DHT22;54618;52.018;5.576;2024-03-25T01:58:45;3.80;89.80
67820;DHT22;54618;52.018;5.576;2024-03-25T02:01:11;3.80;89.60
67820;DHT22;54618;52.018;5.576;2024-03-25T02:03:41;3.70;89.60
67820;DHT22;54618;52.018;5.576;2024-03-25T02:06:12;3.80;89.60
67820;DHT22;54618;52.018;5.576;2024-03-25T02:08:42;3.70;89.50
67820;DHT22;54618;52.018;5.576;2024-03-25T02:11:08;3.70;89.60
67820;DHT22;54618;52.018;5.576;2024-03-25T02:13:35;3.70;89.60
67820;DHT22;54618;52.018;5.576;2024-03-25T02:16:02;3.70;89.50
67820;DHT22;54618;52.018;5.576;2024-03-25T02:18:29;3.70;89.60
67820;DHT22;54618;52.018;5.576;2024-03-25T02:20:57;3.70;89.50
67820;DHT22;54618;52.018;5.576;2024-03-25T02:23:23;3.70;89.50
67820;DHT22;54618;52.018;5.576;2024-03-25T02:25:52;3.70;89.50
67820;DHT22;54618;52.018;5.576;2024-03-25T02:28:18;3.70;89.50
67820;DHT22;54618;52.018;5.576;2024-03-25T02:30:43;3.70;89.60
67820;DHT22;54618;52.018;5.576;2024-03-25T02:33:09;3.70;89.50
67820;DHT22;54618;52.018;5.576;2024-03-25T02:35:35;3.60;89.50
67820;DHT22;54618;52.018;5.576;2024-03-25T02:38:02;3.60;89.50
67820;DHT22;54618;52.018;5.576;2024-03-25T02:40:29;3.60;89.50
67820;DHT22;54618;52.018;5.576;2024-03-25T02:42:55;3.60;89.50
67820;DHT22;54618;52.018;5.576;2024-03-25T02:45:21;3.60;89.40
67820;DHT22;54618;52.018;5.576;2024-03-25T02:47:47;3.60;89.40
67820;DHT22;54618;52.018;5.576;2024-03-25T02:50:13;3.50;89.40
67820;DHT22;54618;52.018;5.576;2024-03-25T02:52:38;3.50;89.40
67820;DHT22;54618;52.018;5.576;2024-03-25T02:55:04;3.50;89.40
67820;DHT22;54618;52.018;5.576;2024-03-25T02:57:30;3.50;89.50
67820;DHT22;54618;52.018;5.576;2024-03-25T02:59:55;3.50;89.50
67820;DHT22;54618;52.018;5.576;2024-03-25T03:02:21;3.50;89.60
67820;DHT22;54618;52.018;5.576;2024-03-25T03:04:46;3.50;89.60
67820;DHT22;54618;52.018;5.576;2024-03-25T03:07:12;3.50;89.70
67820;DHT22;54618;52.018;5.576;2024-03-25T03:09:38;3.50;89.60
67820;DHT22;54618;52.018;5.576;2024-03-25T03:12:04;3.50;89.60
67820;DHT22;54618;52.018;5.576;2024-03-25T03:14:29;3.40;89.60
67820;DHT22;54618;52.018;5.576;2024-03-25T03:16:55;3.40;89.50
67820;DHT22;54618;52.018;5.576;2024-03-25T03:19:27;3.40;89.80
67820;DHT22;54618;52.018;5.576;2024-03-25T03:21:53;3.40;89.70
67820;DHT22;54618;52.018;5.576;2024-03-25T03:24:19;3.40;89.70
67820;DHT22;54618;52.018;5.576;2024-03-25T03:26:45;3.30;89.70
67820;DHT22;54618;52.018;5.576;2024-03-25T03:29:11;3.30;89.70
67820;DHT22;54618;52.018;5.576;2024-03-25T03:31:37;3.30;89.70
67820;DHT22;54618;52.018;5.576;2024-03-25T03:34:02;3.30;89.80
67820;DHT22;54618;52.018;5.576;2024-03-25T03:36:28;3.30;89.90
67820;DHT22;54618;52.018;5.576;2024-03-25T03:38:54;3.30;90.00
67820;DHT22;54618;52.018;5.576;2024-03-25T03:41:20;3.30;90.00
67820;DHT22;54618;52.018;5.576;2024-03-25T03:43:46;3.20;90.00
67820;DHT22;54618;52.018;5.576;2024-03-25T03:46:11;3.20;89.90
67820;DHT22;54618;52.018;5.576;2024-03-25T03:48:37;3.20;90.00
67820;DHT22;54618;52.018;5.576;2024-03-25T03:51:04;3.20;90.00
67820;DHT22;54618;52.018;5.576;2024-03-25T03:53:31;3.20;90.20
67820;DHT22;54618;52.018;5.576;2024-03-25T03:55:57;3.10;90.00
67820;DHT22;54618;52.018;5.576;2024-03-25T03:58:24;3.10;90.00
67820;DHT22;54618;52.018;5.576;2024-03-25T04:00:51;3.10;90.00
67820;DHT22;54618;52.018;5.576;2024-03-25T04:03:17;3.10;90.00
67820;DHT22;54618;52.018;5.576;2024-03-25T04:05:43;3.10;90.10
67820;DHT22;54618;52.018;5.576;2024-03-25T04:08:09;3.10;90.10
67820;DHT22;54618;52.018;5.576;2024-03-25T04:10:35;3.10;90.20
67820;DHT22;54618;52.018;5.576;2024-03-25T04:13:01;3.00;90.10
67820;DHT22;54618;52.018;5.576;2024-03-25T04:15:27;3.00;90.10
67820;DHT22;54618;52.018;5.576;2024-03-25T04:17:53;2.90;90.10
67820;DHT22;54618;52.018;5.576;2024-03-25T04:20:19;2.90;90.40
67820;DHT22;54618;52.018;5.576;2024-03-25T04:22:45;2.90;90.10
67820;DHT22;54618;52.018;5.576;2024-03-25T04:25:12;2.80;90.10
67820;DHT22;54618;52.018;5.576;2024-03-25T04:27:40;2.80;90.10
67820;DHT22;54618;52.018;5.576;2024-03-25T04:30:09;2.80;90.20
67820;DHT22;54618;52.018;5.576;2024-03-25T04:32:35;2.80;90.20
67820;DHT22;54618;52.018;5.576;2024-03-25T04:35:01;2.70;90.20
67820;DHT22;54618;52.018;5.576;2024-03-25T04:37:27;2.80;90.30
67820;DHT22;54618;52.018;5.576;2024-03-25T04:39:54;2.70;90.20
67820;DHT22;54618;52.018;5.576;2024-03-25T04:42:20;2.70;90.20
67820;DHT22;54618;52.018;5.576;2024-03-25T04:44:46;2.70;90.20
67820;DHT22;54618;52.018;5.576;2024-03-25T04:47:12;2.70;90.30
67820;DHT22;54618;52.018;5.576;2024-03-25T04:49:39;2.70;90.30
67820;DHT22;54618;52.018;5.576;2024-03-25T04:52:04;2.70;90.30
67820;DHT22;54618;52.018;5.576;2024-03-25T04:54:30;2.70;90.30
67820;DHT22;54618;52.018;5.576;2024-03-25T04:56:56;2.60;90.30
67820;DHT22;54618;52.018;5.576;2024-03-25T04:59:21;2.60;90.30
67820;DHT22;54618;52.018;5.576;2024-03-25T05:01:47;2.70;90.30
67820;DHT22;54618;52.018;5.576;2024-03-25T05:04:13;2.60;90.20
67820;DHT22;54618;52.018;5.576;2024-03-25T05:06:38;2.60;90.20
67820;DHT22;54618;52.018;5.576;2024-03-25T05:09:04;2.60;90.20
67820;DHT22;54618;52.018;5.576;2024-03-25T05:11:32;2.60;90.20
67820;DHT22;54618;52.018;5.576;2024-03-25T05:13:57;2.60;90.10
67820;DHT22;54618;52.018;5.576;2024-03-25T05:16:23;2.60;90.20
67820;DHT22;54618;52.018;5.576;2024-03-25T05:18:48;2.60;90.20
67820;DHT22;54618;52.018;5.576;2024-03-25T05:21:14;2.60;90.20
67820;DHT22;54618;52.018;5.576;2024-03-25T05:23:40;2.60;90.20
67820;DHT22;54618;52.018;5.576;2024-03-25T05:26:05;2.60;90.20
67820;DHT22;54618;52.018;5.576;2024-03-25T05:28:31;2.60;90.20
67820;DHT22;54618;52.018;5.576;2024-03-25T05:30:56;2.60;90.10
67820;DHT22;54618;52.018;5.576;2024-03-25T05:33:22;2.60;90.10
67820;DHT22;54618;52.018;5.576;2024-03-25T05:35:47;2.60;90.10
67820;DHT22;54618;52.018;5.576;2024-03-25T05:38:14;2.70;90.10
67820;DHT22;54618;52.018;5.576;2024-03-25T05:40:39;2.70;90.10
67820;DHT22;54618;52.018;5.576;2024-03-25T05:43:05;2.70;90.10
67820;DHT22;54618;52.018;5.576;2024-03-25T05:45:30;2.70;90.20
67820;DHT22;54618;52.018;5.576;2024-03-25T05:47:56;2.80;90.10
67820;DHT22;54618;52.018;5.576;2024-03-25T05:50:21;2.80;90.00
67820;DHT22;54618;52.018;5.576;2024-03-25T05:52:47;2.80;90.00
67820;DHT22;54618;52.018;5.576;2024-03-25T05:55:13;2.80;90.00
67820;DHT22;54618;52.018;5.576;2024-03-25T05:57:39;2.80;89.90
67820;DHT22;54618;52.018;5.576;2024-03-25T06:00:05;2.90;89.90
67820;DHT22;54618;52.018;5.576;2024-03-25T06:02:33;2.90;89.90
67820;DHT22;54618;52.018;5.576;2024-03-25T06:04:58;2.90;89.70
67820;DHT22;54618;52.018;5.576;2024-03-25T06:07:24;3.00;89.70
67820;DHT22;54618;52.018;5.576;2024-03-25T06:09:50;3.00;89.80
67820;DHT22;54618;52.018;5.576;2024-03-25T06:12:15;3.00;89.70
67820;DHT22;54618;52.018;5.576;2024-03-25T06:14:41;3.00;89.60
67820;DHT22;54618;52.018;5.576;2024-03-25T06:17:09;3.10;89.60
67820;DHT22;54618;52.018;5.576;2024-03-25T06:19:34;3.20;89.50
67820;DHT22;54618;52.018;5.576;2024-03-25T06:22:00;3.30;89.40
67820;DHT22;54618;52.018;5.576;2024-03-25T06:24:25;3.30;89.30
67820;DHT22;54618;52.018;5.576;2024-03-25T06:26:51;3.30;89.10
67820;DHT22;54618;52.018;5.576;2024-03-25T06:29:17;3.40;89.10
67820;DHT22;54618;52.018;5.576;2024-03-25T06:31:42;3.50;89.10
67820;DHT22;54618;52.018;5.576;2024-03-25T06:34:26;3.50;89.00
67820;DHT22;54618;52.018;5.576;2024-03-25T06:36:52;3.60;89.10
67820;DHT22;54618;52.018;5.576;2024-03-25T06:39:17;3.70;89.00
67820;DHT22;54618;52.018;5.576;2024-03-25T06:41:44;3.90;89.10
67820;DHT22;54618;52.018;5.576;2024-03-25T06:44:09;4.00;88.90
67820;DHT22;54618;52.018;5.576;2024-03-25T06:46:35;4.20;88.90
67820;DHT22;54618;52.018;5.576;2024-03-25T06:49:00;4.40;88.80
67820;DHT22;54618;52.018;5.576;2024-03-25T06:51:26;4.50;88.70
67820;DHT22;54618;52.018;5.576;2024-03-25T06:53:52;4.70;88.70
67820;DHT22;54618;52.018;5.576;2024-03-25T06:56:18;4.90;88.60
67820;DHT22;54618;52.018;5.576;2024-03-25T06:58:43;5.10;89.10
67820;DHT22;54618;52.018;5.576;2024-03-25T07:01:09;5.30;89.10
67820;DHT22;54618;52.018;5.576;2024-03-25T07:03:37;5.50;88.60
67820;DHT22;54618;52.018;5.576;2024-03-25T07:06:04;5.70;88.60
67820;DHT22;54618;52.018;5.576;2024-03-25T07:08:30;5.90;88.60
67820;DHT22;54618;52.018;5.576;2024-03-25T07:10:56;6.10;88.80
67820;DHT22;54618;52.018;5.576;2024-03-25T07:13:22;6.30;88.90
67820;DHT22;54618;52.018;5.576;2024-03-25T07:15:48;6.40;88.80
67820;DHT22;54618;52.018;5.576;2024-03-25T07:18:14;6.60;89.00
67820;DHT22;54618;52.018;5.576;2024-03-25T07:20:40;6.80;89.20
67820;DHT22;54618;52.018;5.576;2024-03-25T07:23:06;7.00;89.40
67820;DHT22;54618;52.018;5.576;2024-03-25T07:25:32;7.20;89.70
67820;DHT22;54618;52.018;5.576;2024-03-25T07:27:58;7.30;89.80
67820;DHT22;54618;52.018;5.576;2024-03-25T07:30:23;7.50;90.00
67820;DHT22;54618;52.018;5.576;2024-03-25T07:32:56;7.70;90.10
67820;DHT22;54618;52.018;5.576;2024-03-25T07:35:22;7.90;90.20
67820;DHT22;54618;52.018;5.576;2024-03-25T07:37:48;8.10;90.50
67820;DHT22;54618;52.018;5.576;2024-03-25T07:40:17;8.30;90.30
67820;DHT22;54618;52.018;5.576;2024-03-25T07:42:43;8.60;90.40
67820;DHT22;54618;52.018;5.576;2024-03-25T07:45:09;8.70;90.50
67820;DHT22;54618;52.018;5.576;2024-03-25T07:47:34;8.90;90.50
67820;DHT22;54618;52.018;5.576;2024-03-25T07:50:00;9.10;90.60
67820;DHT22;54618;52.018;5.576;2024-03-25T07:52:26;9.30;90.90
67820;DHT22;54618;52.018;5.576;2024-03-25T07:54:52;9.50;90.90
67820;DHT22;54618;52.018;5.576;2024-03-25T07:57:18;9.70;91.00
67820;DHT22;54618;52.018;5.576;2024-03-25T07:59:45;9.80;91.10
67820;DHT22;54618;52.018;5.576;2024-03-25T08:02:10;10.00;91.20
67820;DHT22;54618;52.018;5.576;2024-03-25T08:04:36;10.10;91.40
67820;DHT22;54618;52.018;5.576;2024-03-25T08:07:02;10.30;91.60
67820;DHT22;54618;52.018;5.576;2024-03-25T08:09:28;10.50;92.00
67820;DHT22;54618;52.018;5.576;2024-03-25T08:11:54;10.60;91.60
67820;DHT22;54618;52.018;5.576;2024-03-25T08:14:20;10.70;91.80
67820;DHT22;54618;52.018;5.576;2024-03-25T08:16:45;10.80;92.10
67820;DHT22;54618;52.018;5.576;2024-03-25T08:19:11;11.00;92.20
67820;DHT22;54618;52.018;5.576;2024-03-25T08:21:36;11.10;92.00
67820;DHT22;54618;52.018;5.576;2024-03-25T08:24:02;11.20;92.20
67820;DHT22;54618;52.018;5.576;2024-03-25T08:26:28;11.40;92.40
67820;DHT22;54618;52.018;5.576;2024-03-25T08:28:53;11.40;92.30
67820;DHT22;54618;52.018;5.576;2024-03-25T08:31:19;11.50;92.60
67820;DHT22;54618;52.018;5.576;2024-03-25T08:33:44;11.60;92.90
67820;DHT22;54618;52.018;5.576;2024-03-25T08:36:10;11.70;93.20
67820;DHT22;54618;52.018;5.576;2024-03-25T08:38:36;11.80;93.30
67820;DHT22;54618;52.018;5.576;2024-03-25T08:41:01;12.00;93.40
67820;DHT22;54618;52.018;5.576;2024-03-25T08:43:27;12.10;93.00
67820;DHT22;54618;52.018;5.576;2024-03-25T08:45:53;12.20;93.40
67820;DHT22;54618;52.018;5.576;2024-03-25T08:48:18;12.40;93.50
67820;DHT22;54618;52.018;5.576;2024-03-25T08:50:44;12.50;93.60
67820;DHT22;54618;52.018;5.576;2024-03-25T08:53:09;12.60;93.20
67820;DHT22;54618;52.018;5.576;2024-03-25T08:55:35;12.60;93.60
67820;DHT22;54618;52.018;5.576;2024-03-25T08:58:00;12.70;93.30
67820;DHT22;54618;52.018;5.576;2024-03-25T09:00:27;12.90;93.60
67820;DHT22;54618;52.018;5.576;2024-03-25T09:02:53;13.00;93.20
67820;DHT22;54618;52.018;5.576;2024-03-25T09:05:22;13.00;93.20
67820;DHT22;54618;52.018;5.576;2024-03-25T09:07:51;13.00;93.30
67820;DHT22;54618;52.018;5.576;2024-03-25T09:10:20;12.90;93.40
67820;DHT22;54618;52.018;5.576;2024-03-25T09:13:05;12.80;93.00
67820;DHT22;54618;52.018;5.576;2024-03-25T09:15:30;12.80;93.60
67820;DHT22;54618;52.018;5.576;2024-03-25T09:17:56;13.00;93.60
67820;DHT22;54618;52.018;5.576;2024-03-25T09:20:22;13.20;93.20
67820;DHT22;54618;52.018;5.576;2024-03-25T09:22:48;13.20;93.20
67820;DHT22;54618;52.018;5.576;2024-03-25T09:25:14;13.00;93.20
67820;DHT22;54618;52.018;5.576;2024-03-25T09:27:40;12.90;93.50
67820;DHT22;54618;52.018;5.576;2024-03-25T09:30:06;12.90;93.40
67820;DHT22;54618;52.018;5.576;2024-03-25T09:32:34;12.80;93.20
67820;DHT22;54618;52.018;5.576;2024-03-25T09:35:00;12.80;93.30
67820;DHT22;54618;52.018;5.576;2024-03-25T09:37:26;12.70;93.80
67820;DHT22;54618;52.018;5.576;2024-03-25T09:39:52;12.70;93.50
67820;DHT22;54618;52.018;5.576;2024-03-25T09:42:31;12.70;93.00
67820;DHT22;54618;52.018;5.576;2024-03-25T09:44:59;12.60;92.60
67820;DHT22;54618;52.018;5.576;2024-03-25T09:47:25;12.80;92.70
67820;DHT22;54618;52.018;5.576;2024-03-25T09:49:54;13.00;92.90
67820;DHT22;54618;52.018;5.576;2024-03-25T09:52:20;13.40;92.70
67820;DHT22;54618;52.018;5.576;2024-03-25T09:54:46;13.70;92.40
67820;DHT22;54618;52.018;5.576;2024-03-25T09:57:11;13.90;91.90
67820;DHT22;54618;52.018;5.576;2024-03-25T09:59:37;14.00;91.70
67820;DHT22;54618;52.018;5.576;2024-03-25T10:02:03;14.10;91.80
67820;DHT22;54618;52.018;5.576;2024-03-25T10:04:30;14.20;91.90
67820;DHT22;54618;52.018;5.576;2024-03-25T10:06:56;14.30;91.60
67820;DHT22;54618;52.018;5.576;2024-03-25T10:09:22;14.40;91.40
67820;DHT22;54618;52.018;5.576;2024-03-25T10:11:48;14.30;91.30
67820;DHT22;54618;52.018;5.576;2024-03-25T10:14:18;14.10;91.40
67820;DHT22;54618;52.018;5.576;2024-03-25T10:16:48;14.00;91.30
67820;DHT22;54618;52.018;5.576;2024-03-25T10:19:17;13.90;91.30
67820;DHT22;54618;52.018;5.576;2024-03-25T10:21:42;14.00;91.10
67820;DHT22;54618;52.018;5.576;2024-03-25T10:24:08;14.10;90.50
67820;DHT22;54618;52.018;5.576;2024-03-25T10:26:33;14.10;90.40
67820;DHT22;54618;52.018;5.576;2024-03-25T10:29:07;14.10;90.40
67820;DHT22;54618;52.018;5.576;2024-03-25T10:31:34;14.20;90.50
67820;DHT22;54618;52.018;5.576;2024-03-25T10:33:59;14.30;90.40
67820;DHT22;54618;52.018;5.576;2024-03-25T10:36:26;14.40;90.20
67820;DHT22;54618;52.018;5.576;2024-03-25T10:38:56;14.40;89.90
67820;DHT22;54618;52.018;5.576;2024-03-25T10:41:23;14.50;89.30
67820;DHT22;54618;52.018;5.576;2024-03-25T10:43:52;14.70;88.50
67820;DHT22;54618;52.018;5.576;2024-03-25T10:46:20;15.00;87.00
67820;DHT22;54618;52.018;5.576;2024-03-25T10:49:08;15.20;86.40
67820;DHT22;54618;52.018;5.576;2024-03-25T10:51:36;15.30;76.40
67820;DHT22;54618;52.018;5.576;2024-03-25T10:54:03;15.40;85.00
67820;DHT22;54618;52.018;5.576;2024-03-25T10:56:29;15.50;84.70
67820;DHT22;54618;52.018;5.576;2024-03-25T10:58:55;15.70;84.10
67820;DHT22;54618;52.018;5.576;2024-03-25T11:01:22;15.80;83.70
67820;DHT22;54618;52.018;5.576;2024-03-25T11:03:49;15.90;83.30
67820;DHT22;54618;52.018;5.576;2024-03-25T11:06:15;15.80;82.90
67820;DHT22;54618;52.018;5.576;2024-03-25T11:08:42;15.80;83.80
67820;DHT22;54618;52.018;5.576;2024-03-25T11:11:15;15.80;83.60
67820;DHT22;54618;52.018;5.576;2024-03-25T11:13:42;15.70;82.60
67820;DHT22;54618;52.018;5.576;2024-03-25T11:16:07;15.60;82.00
67820;DHT22;54618;52.018;5.576;2024-03-25T11:18:35;15.60;82.00
67820;DHT22;54618;52.018;5.576;2024-03-25T11:21:04;15.60;82.10
67820;DHT22;54618;52.018;5.576;2024-03-25T11:23:43;15.50;80.80
67820;DHT22;54618;52.018;5.576;2024-03-25T11:26:24;15.40;75.40
67820;DHT22;54618;52.018;5.576;2024-03-25T11:28:51;15.30;75.00
67820;DHT22;54618;52.018;5.576;2024-03-25T11:31:20;15.30;80.10
67820;DHT22;54618;52.018;5.576;2024-03-25T11:33:47;15.40;79.50
67820;DHT22;54618;52.018;5.576;2024-03-25T11:36:12;15.40;79.10
67820;DHT22;54618;52.018;5.576;2024-03-25T11:38:38;15.30;79.10
67820;DHT22;54618;52.018;5.576;2024-03-25T11:41:07;15.30;78.70
67820;DHT22;54618;52.018;5.576;2024-03-25T11:43:33;15.30;79.20
67820;DHT22;54618;52.018;5.576;2024-03-25T11:45:59;15.40;80.20
67820;DHT22;54618;52.018;5.576;2024-03-25T11:48:25;15.60;79.30
67820;DHT22;54618;52.018;5.576;2024-03-25T11:50:51;15.90;79.70
67820;DHT22;54618;52.018;5.576;2024-03-25T11:53:17;16.00;78.90
67820;DHT22;54618;52.018;5.576;2024-03-25T11:55:47;15.80;76.80
67820;DHT22;54618;52.018;5.576;2024-03-25T11:58:13;15.60;76.00
67820;DHT22;54618;52.018;5.576;2024-03-25T12:00:46;15.50;78.20
67820;DHT22;54618;52.018;5.576;2024-03-25T12:03:15;15.60;77.60
67820;DHT22;54618;52.018;5.576;2024-03-25T12:05:44;15.60;78.10
67820;DHT22;54618;52.018;5.576;2024-03-25T12:08:10;15.50;76.60
67820;DHT22;54618;52.018;5.576;2024-03-25T12:10:37;15.30;75.50
67820;DHT22;54618;52.018;5.576;2024-03-25T12:13:21;15.10;76.60
67820;DHT22;54618;52.018;5.576;2024-03-25T12:15:48;15.20;76.50
67820;DHT22;54618;52.018;5.576;2024-03-25T12:18:14;15.30;74.50
67820;DHT22;54618;52.018;5.576;2024-03-25T12:20:40;15.30;74.20
67820;DHT22;54618;52.018;5.576;2024-03-25T12:23:07;15.40;74.00
67820;DHT22;54618;52.018;5.576;2024-03-25T12:25:33;15.30;72.10
67820;DHT22;54618;52.018;5.576;2024-03-25T12:27:58;15.10;73.70
67820;DHT22;54618;52.018;5.576;2024-03-25T12:30:24;14.80;72.50
67820;DHT22;54618;52.018;5.576;2024-03-25T12:32:51;14.60;73.20
67820;DHT22;54618;52.018;5.576;2024-03-25T12:35:17;14.40;73.40
67820;DHT22;54618;52.018;5.576;2024-03-25T12:37:45;14.30;74.30
67820;DHT22;54618;52.018;5.576;2024-03-25T12:40:12;14.10;74.60
67820;DHT22;54618;52.018;5.576;2024-03-25T12:42:38;14.00;74.60
67820;DHT22;54618;52.018;5.576;2024-03-25T12:45:07;14.00;74.30
67820;DHT22;54618;52.018;5.576;2024-03-25T12:47:33;14.20;74.90
67820;DHT22;54618;52.018;5.576;2024-03-25T12:49:59;14.40;74.00
67820;DHT22;54618;52.018;5.576;2024-03-25T12:52:25;14.50;74.40
67820;DHT22;54618;52.018;5.576;2024-03-25T12:54:51;14.50;73.90
67820;DHT22;54618;52.018;5.576;2024-03-25T12:57:16;14.60;74.30
67820;DHT22;54618;52.018;5.576;2024-03-25T12:59:43;14.70;72.20
67820;DHT22;54618;52.018;5.576;2024-03-25T13:02:12;14.70;72.80
67820;DHT22;54618;52.018;5.576;2024-03-25T13:04:38;14.80;71.30
67820;DHT22;54618;52.018;5.576;2024-03-25T13:07:05;14.80;71.60
67820;DHT22;54618;52.018;5.576;2024-03-25T13:09:31;14.80;70.70
67820;DHT22;54618;52.018;5.576;2024-03-25T13:11:57;14.70;71.30
67820;DHT22;54618;52.018;5.576;2024-03-25T13:14:24;14.60;69.70
67820;DHT22;54618;52.018;5.576;2024-03-25T13:16:49;14.40;70.00
67820;DHT22;54618;52.018;5.576;2024-03-25T13:19:15;14.30;70.50
67820;DHT22;54618;52.018;5.576;2024-03-25T13:21:41;14.10;70.30
67820;DHT22;54618;52.018;5.576;2024-03-25T13:24:07;14.00;70.90
67820;DHT22;54618;52.018;5.576;2024-03-25T13:26:33;13.90;70.30
67820;DHT22;54618;52.018;5.576;2024-03-25T13:28:59;13.80;71.30
67820;DHT22;54618;52.018;5.576;2024-03-25T13:31:25;13.80;71.10
67820;DHT22;54618;52.018;5.576;2024-03-25T13:33:51;14.00;70.90
67820;DHT22;54618;52.018;5.576;2024-03-25T13:36:17;14.10;69.60
67820;DHT22;54618;52.018;5.576;2024-03-25T13:38:43;14.20;69.60
67820;DHT22;54618;52.018;5.576;2024-03-25T13:41:09;14.10;69.80
67820;DHT22;54618;52.018;5.576;2024-03-25T13:43:35;13.90;70.10
67820;DHT22;54618;52.018;5.576;2024-03-25T13:46:01;13.80;70.20
67820;DHT22;54618;52.018;5.576;2024-03-25T13:48:27;13.70;70.40
67820;DHT22;54618;52.018;5.576;2024-03-25T13:50:55;13.60;69.60
67820;DHT22;54618;52.018;5.576;2024-03-25T13:53:21;13.70;70.10
67820;DHT22;54618;52.018;5.576;2024-03-25T13:55:46;13.80;70.00
67820;DHT22;54618;52.018;5.576;2024-03-25T13:58:12;13.80;70.00
67820;DHT22;54618;52.018;5.576;2024-03-25T14:00:38;13.80;69.30
67820;DHT22;54618;52.018;5.576;2024-03-25T14:03:04;13.80;69.10
67820;DHT22;54618;52.018;5.576;2024-03-25T14:05:29;13.90;69.90
67820;DHT22;54618;52.018;5.576;2024-03-25T14:07:55;14.10;69.70
67820;DHT22;54618;52.018;5.576;2024-03-25T14:10:22;14.10;69.10
67820;DHT22;54618;52.018;5.576;2024-03-25T14:12:47;14.20;69.20
67820;DHT22;54618;52.018;5.576;2024-03-25T14:15:13;14.20;68.30
67820;DHT22;54618;52.018;5.576;2024-03-25T14:17:39;14.10;68.40
67820;DHT22;54618;52.018;5.576;2024-03-25T14:20:05;14.00;69.20
67820;DHT22;54618;52.018;5.576;2024-03-25T14:22:32;13.90;69.00
67820;DHT22;54618;52.018;5.576;2024-03-25T14:24:58;13.70;68.50
67820;DHT22;54618;52.018;5.576;2024-03-25T14:27:24;13.60;68.50
67820;DHT22;54618;52.018;5.576;2024-03-25T14:29:50;13.40;68.20
67820;DHT22;54618;52.018;5.576;2024-03-25T14:32:20;13.40;69.20
67820;DHT22;54618;52.018;5.576;2024-03-25T14:34:47;13.40;68.40
67820;DHT22;54618;52.018;5.576;2024-03-25T14:37:12;13.50;68.00
67820;DHT22;54618;52.018;5.576;2024-03-25T14:39:38;13.60;67.90
67820;DHT22;54618;52.018;5.576;2024-03-25T14:42:04;13.70;68.40
67820;DHT22;54618;52.018;5.576;2024-03-25T14:44:30;13.70;67.00
67820;DHT22;54618;52.018;5.576;2024-03-25T14:46:56;13.70;67.70
67820;DHT22;54618;52.018;5.576;2024-03-25T14:49:24;13.80;67.00
67820;DHT22;54618;52.018;5.576;2024-03-25T14:51:49;13.70;65.90
67820;DHT22;54618;52.018;5.576;2024-03-25T14:54:18;13.60;66.30
67820;DHT22;54618;52.018;5.576;2024-03-25T14:56:44;13.50;66.60
67820;DHT22;54618;52.018;5.576;2024-03-25T14:59:10;13.40;66.90
67820;DHT22;54618;52.018;5.576;2024-03-25T15:01:36;13.30;66.40
67820;DHT22;54618;52.018;5.576;2024-03-25T15:04:03;13.30;66.60
67820;DHT22;54618;52.018;5.576;2024-03-25T15:06:29;13.30;66.00
67820;DHT22;54618;52.018;5.576;2024-03-25T15:08:59;13.20;66.50
67820;DHT22;54618;52.018;5.576;2024-03-25T15:11:25;13.30;66.70
67820;DHT22;54618;52.018;5.576;2024-03-25T15:13:52;13.20;65.90
67820;DHT22;54618;52.018;5.576;2024-03-25T15:16:18;13.20;66.50
67820;DHT22;54618;52.018;5.576;2024-03-25T15:18:43;13.10;65.90
67820;DHT22;54618;52.018;5.576;2024-03-25T15:21:09;13.00;66.20
67820;DHT22;54618;52.018;5.576;2024-03-25T15:23:35;12.90;65.90
67820;DHT22;54618;52.018;5.576;2024-03-25T15:26:01;12.90;66.60
67820;DHT22;54618;52.018;5.576;2024-03-25T15:28:26;12.90;66.30
67820;DHT22;54618;52.018;5.576;2024-03-25T15:30:57;12.90;66.90
67820;DHT22;54618;52.018;5.576;2024-03-25T15:33:22;13.00;66.90